< < Back
Terminal Aerodrome Forecast


Current Version              Previous Versions:   1  2  3  4  5  6  7  8  9  

Terminal Aerodrome Forecast

973
FTUS42 KTAE 261120
TAFDHN
TAF
KDHN 261120Z 2612/2712 VRB05KT P6SM SCT250
     FM261600 18010KT P6SM TS SCT030 BKN040CB
     FM262300 18005KT P6SM FEW050 SCT250=

Latest METAR

442
SAUS70 KWBC 261600
MTRDHN
METAR KDHN 261553Z 17008KT 10SM SCT026 BKN032 31/23 A3008 RMK AO2 SLP179
T03110233


USA.gov is the U.S. government's official web portal to all federal, state and local government web resources and services.